Terminal Aerodrome Forecast
Issued by NWS

Home | Current Version | Previous Version | Text Only | Print | Product List | Glossary On
Versions: 1 2 3 4 5 6 7 8 9 10 11 12
000
FTUS44 KOUN 030520
TAFWWR
TAF
KWWR 030520Z 0306/0406 06007KT P6SM OVC025
      TEMPO 0306/0310 -RA
     FM031000 04006KT 4SM -RADZ OVC009
     FM031600 08009KT 3SM -RADZ OVC009=

USA.gov is the U.S. government's official web portal to all federal, state and local government web resources and services.